sensor_id;sensor_type;location;lat;lon;timestamp;temperature;humidity
11083;DHT22;5595;50.186;8.468;2024-03-02T00:00:27;4.50;99.90
11083;DHT22;5595;50.186;8.468;2024-03-02T00:02:54;4.40;99.90
11083;DHT22;5595;50.186;8.468;2024-03-02T00:05:21;4.40;99.90
11083;DHT22;5595;50.186;8.468;2024-03-02T00:07:53;4.40;99.90
11083;DHT22;5595;50.186;8.468;2024-03-02T00:10:24;4.40;99.90
11083;DHT22;5595;50.186;8.468;2024-03-02T00:12:55;4.30;99.90
11083;DHT22;5595;50.186;8.468;2024-03-02T00:15:46;4.30;99.90
11083;DHT22;5595;50.186;8.468;2024-03-02T00:18:14;4.30;99.90
11083;DHT22;5595;50.186;8.468;2024-03-02T00:20:41;4.20;99.90
11083;DHT22;5595;50.186;8.468;2024-03-02T00:23:09;4.20;99.90
11083;DHT22;5595;50.186;8.468;2024-03-02T00:25:40;4.20;99.90
11083;DHT22;5595;50.186;8.468;2024-03-02T00:28:17;4.20;99.90
11083;DHT22;5595;50.186;8.468;2024-03-02T00:30:52;4.20;99.90
11083;DHT22;5595;50.186;8.468;2024-03-02T00:33:19;4.10;99.90
11083;DHT22;5595;50.186;8.468;2024-03-02T00:35:47;4.10;99.90
11083;DHT22;5595;50.186;8.468;2024-03-02T00:38:15;4.10;99.90
11083;DHT22;5595;50.186;8.468;2024-03-02T00:40:43;4.00;99.90
11083;DHT22;5595;50.186;8.468;2024-03-02T00:43:38;4.00;99.90
11083;DHT22;5595;50.186;8.468;2024-03-02T00:46:06;4.00;99.90
11083;DHT22;5595;50.186;8.468;2024-03-02T00:48:33;3.90;99.90
11083;DHT22;5595;50.186;8.468;2024-03-02T00:51:01;3.90;99.90
11083;DHT22;5595;50.186;8.468;2024-03-02T00:53:30;3.90;99.90
11083;DHT22;5595;50.186;8.468;2024-03-02T00:55:59;3.80;99.90
11083;DHT22;5595;50.186;8.468;2024-03-02T00:58:27;3.90;99.90
11083;DHT22;5595;50.186;8.468;2024-03-02T01:00:53;3.80;99.90
11083;DHT22;5595;50.186;8.468;2024-03-02T01:03:21;3.70;99.90
11083;DHT22;5595;50.186;8.468;2024-03-02T01:05:47;3.70;99.90
11083;DHT22;5595;50.186;8.468;2024-03-02T01:08:14;3.70;99.90
11083;DHT22;5595;50.186;8.468;2024-03-02T01:10:41;3.70;99.90
11083;DHT22;5595;50.186;8.468;2024-03-02T01:13:10;3.70;99.90
11083;DHT22;5595;50.186;8.468;2024-03-02T01:15:36;3.70;99.90
11083;DHT22;5595;50.186;8.468;2024-03-02T01:18:04;3.70;99.90
11083;DHT22;5595;50.186;8.468;2024-03-02T01:20:31;3.60;99.90
11083;DHT22;5595;50.186;8.468;2024-03-02T01:22:57;3.70;99.90
11083;DHT22;5595;50.186;8.468;2024-03-02T01:25:24;3.70;99.90
11083;DHT22;5595;50.186;8.468;2024-03-02T01:27:51;3.80;99.90
11083;DHT22;5595;50.186;8.468;2024-03-02T01:30:19;3.80;99.90
11083;DHT22;5595;50.186;8.468;2024-03-02T01:32:47;3.80;99.90
11083;DHT22;5595;50.186;8.468;2024-03-02T01:35:13;3.80;99.90
11083;DHT22;5595;50.186;8.468;2024-03-02T01:37:41;3.80;99.90
11083;DHT22;5595;50.186;8.468;2024-03-02T01:40:09;3.90;99.90
11083;DHT22;5595;50.186;8.468;2024-03-02T01:42:37;3.90;99.90
11083;DHT22;5595;50.186;8.468;2024-03-02T01:45:04;3.90;99.90
11083;DHT22;5595;50.186;8.468;2024-03-02T01:47:33;3.90;99.90
11083;DHT22;5595;50.186;8.468;2024-03-02T01:50:00;3.90;99.90
11083;DHT22;5595;50.186;8.468;2024-03-02T01:52:27;3.90;99.90
11083;DHT22;5595;50.186;8.468;2024-03-02T01:54:55;3.90;99.90
11083;DHT22;5595;50.186;8.468;2024-03-02T01:57:21;3.90;99.90
11083;DHT22;5595;50.186;8.468;2024-03-02T01:59:48;3.80;99.90
11083;DHT22;5595;50.186;8.468;2024-03-02T02:02:16;3.80;99.90
11083;DHT22;5595;50.186;8.468;2024-03-02T02:04:44;3.70;99.90
11083;DHT22;5595;50.186;8.468;2024-03-02T02:07:11;3.70;99.90
11083;DHT22;5595;50.186;8.468;2024-03-02T02:09:40;3.60;99.90
11083;DHT22;5595;50.186;8.468;2024-03-02T02:12:07;3.60;99.90
11083;DHT22;5595;50.186;8.468;2024-03-02T02:14:34;3.60;99.90
11083;DHT22;5595;50.186;8.468;2024-03-02T02:17:00;3.50;99.90
11083;DHT22;5595;50.186;8.468;2024-03-02T02:19:27;3.50;99.90
11083;DHT22;5595;50.186;8.468;2024-03-02T02:21:56;3.50;99.90
11083;DHT22;5595;50.186;8.468;2024-03-02T02:24:22;3.50;99.90
11083;DHT22;5595;50.186;8.468;2024-03-02T02:26:49;3.50;99.90
11083;DHT22;5595;50.186;8.468;2024-03-02T02:29:16;3.40;99.90
11083;DHT22;5595;50.186;8.468;2024-03-02T02:31:43;3.50;99.90
11083;DHT22;5595;50.186;8.468;2024-03-02T02:34:09;3.50;99.90
11083;DHT22;5595;50.186;8.468;2024-03-02T02:36:38;3.50;99.90
11083;DHT22;5595;50.186;8.468;2024-03-02T02:39:09;3.50;99.90
11083;DHT22;5595;50.186;8.468;2024-03-02T02:41:37;3.50;99.90
11083;DHT22;5595;50.186;8.468;2024-03-02T02:44:04;3.40;99.90
11083;DHT22;5595;50.186;8.468;2024-03-02T02:46:31;3.40;99.90
11083;DHT22;5595;50.186;8.468;2024-03-02T02:48:58;3.40;99.90
11083;DHT22;5595;50.186;8.468;2024-03-02T02:51:24;3.40;99.90
11083;DHT22;5595;50.186;8.468;2024-03-02T02:53:52;3.40;99.90
11083;DHT22;5595;50.186;8.468;2024-03-02T02:56:20;3.40;99.90
11083;DHT22;5595;50.186;8.468;2024-03-02T02:58:46;3.40;99.90
11083;DHT22;5595;50.186;8.468;2024-03-02T03:01:13;3.30;99.90
11083;DHT22;5595;50.186;8.468;2024-03-02T03:03:42;3.30;99.90
11083;DHT22;5595;50.186;8.468;2024-03-02T03:06:09;3.30;99.90
11083;DHT22;5595;50.186;8.468;2024-03-02T03:08:36;3.30;99.90
11083;DHT22;5595;50.186;8.468;2024-03-02T03:11:03;3.30;99.90
11083;DHT22;5595;50.186;8.468;2024-03-02T03:13:31;3.30;99.90
11083;DHT22;5595;50.186;8.468;2024-03-02T03:15:58;3.30;99.90
11083;DHT22;5595;50.186;8.468;2024-03-02T03:18:25;3.30;99.90
11083;DHT22;5595;50.186;8.468;2024-03-02T03:20:52;3.20;99.90
11083;DHT22;5595;50.186;8.468;2024-03-02T03:23:18;3.20;99.90
11083;DHT22;5595;50.186;8.468;2024-03-02T03:25:46;3.20;99.90
11083;DHT22;5595;50.186;8.468;2024-03-02T03:28:13;3.20;99.90
11083;DHT22;5595;50.186;8.468;2024-03-02T03:30:41;3.20;99.90
11083;DHT22;5595;50.186;8.468;2024-03-02T03:33:08;3.20;99.90
11083;DHT22;5595;50.186;8.468;2024-03-02T03:35:36;3.20;99.90
11083;DHT22;5595;50.186;8.468;2024-03-02T03:38:04;3.10;99.90
11083;DHT22;5595;50.186;8.468;2024-03-02T03:40:30;3.10;99.90
11083;DHT22;5595;50.186;8.468;2024-03-02T03:42:57;3.10;99.90
11083;DHT22;5595;50.186;8.468;2024-03-02T03:45:25;3.10;99.90
11083;DHT22;5595;50.186;8.468;2024-03-02T03:47:53;3.10;99.90
11083;DHT22;5595;50.186;8.468;2024-03-02T03:50:20;3.10;99.90
11083;DHT22;5595;50.186;8.468;2024-03-02T03:52:47;3.10;99.90
11083;DHT22;5595;50.186;8.468;2024-03-02T03:55:14;3.10;99.90
11083;DHT22;5595;50.186;8.468;2024-03-02T03:57:41;3.10;99.90
11083;DHT22;5595;50.186;8.468;2024-03-02T04:00:08;3.20;99.90
11083;DHT22;5595;50.186;8.468;2024-03-02T04:02:36;3.20;99.90
11083;DHT22;5595;50.186;8.468;2024-03-02T04:05:05;3.10;99.90
11083;DHT22;5595;50.186;8.468;2024-03-02T04:07:35;3.10;99.90
11083;DHT22;5595;50.186;8.468;2024-03-02T04:10:09;3.10;99.90
11083;DHT22;5595;50.186;8.468;2024-03-02T04:12:38;3.10;99.90
11083;DHT22;5595;50.186;8.468;2024-03-02T04:15:05;3.10;99.90
11083;DHT22;5595;50.186;8.468;2024-03-02T04:17:33;3.10;99.90
11083;DHT22;5595;50.186;8.468;2024-03-02T04:20:01;3.10;99.90
11083;DHT22;5595;50.186;8.468;2024-03-02T04:22:33;3.10;99.90
11083;DHT22;5595;50.186;8.468;2024-03-02T04:25:00;3.10;99.90
11083;DHT22;5595;50.186;8.468;2024-03-02T04:27:26;3.10;99.90
11083;DHT22;5595;50.186;8.468;2024-03-02T04:29:53;3.00;99.90
11083;DHT22;5595;50.186;8.468;2024-03-02T04:32:20;3.00;99.90
11083;DHT22;5595;50.186;8.468;2024-03-02T04:34:47;3.00;99.90
11083;DHT22;5595;50.186;8.468;2024-03-02T04:37:14;3.00;99.90
11083;DHT22;5595;50.186;8.468;2024-03-02T04:39:42;3.00;99.90
11083;DHT22;5595;50.186;8.468;2024-03-02T04:42:09;3.00;99.90
11083;DHT22;5595;50.186;8.468;2024-03-02T04:44:35;3.00;99.90
11083;DHT22;5595;50.186;8.468;2024-03-02T04:47:03;3.00;99.90
11083;DHT22;5595;50.186;8.468;2024-03-02T04:49:30;3.00;99.90
11083;DHT22;5595;50.186;8.468;2024-03-02T04:51:57;3.00;99.90
11083;DHT22;5595;50.186;8.468;2024-03-02T04:54:24;2.90;99.90
11083;DHT22;5595;50.186;8.468;2024-03-02T04:56:52;2.90;99.90
11083;DHT22;5595;50.186;8.468;2024-03-02T04:59:19;2.90;99.90
11083;DHT22;5595;50.186;8.468;2024-03-02T05:01:46;2.90;99.90
11083;DHT22;5595;50.186;8.468;2024-03-02T05:04:13;2.80;99.90
11083;DHT22;5595;50.186;8.468;2024-03-02T05:06:40;2.80;99.90
11083;DHT22;5595;50.186;8.468;2024-03-02T05:09:08;2.80;99.90
11083;DHT22;5595;50.186;8.468;2024-03-02T05:11:35;2.80;99.90
11083;DHT22;5595;50.186;8.468;2024-03-02T05:14:36;2.80;99.90
11083;DHT22;5595;50.186;8.468;2024-03-02T05:17:03;2.80;99.90
11083;DHT22;5595;50.186;8.468;2024-03-02T05:19:29;2.70;99.90
11083;DHT22;5595;50.186;8.468;2024-03-02T05:21:56;2.70;99.90
11083;DHT22;5595;50.186;8.468;2024-03-02T05:24:23;2.70;99.90
11083;DHT22;5595;50.186;8.468;2024-03-02T05:26:52;2.70;99.90
11083;DHT22;5595;50.186;8.468;2024-03-02T05:29:19;2.80;99.90
11083;DHT22;5595;50.186;8.468;2024-03-02T05:31:47;2.80;99.90
11083;DHT22;5595;50.186;8.468;2024-03-02T05:34:14;2.90;99.90
11083;DHT22;5595;50.186;8.468;2024-03-02T05:36:41;2.90;99.90
11083;DHT22;5595;50.186;8.468;2024-03-02T05:39:07;2.90;99.90
11083;DHT22;5595;50.186;8.468;2024-03-02T05:41:35;3.00;99.90
11083;DHT22;5595;50.186;8.468;2024-03-02T05:44:03;3.20;99.90
11083;DHT22;5595;50.186;8.468;2024-03-02T05:46:30;3.20;99.90
11083;DHT22;5595;50.186;8.468;2024-03-02T05:48:58;3.30;99.90
11083;DHT22;5595;50.186;8.468;2024-03-02T05:51:26;3.40;99.90
11083;DHT22;5595;50.186;8.468;2024-03-02T05:53:52;3.40;99.90
11083;DHT22;5595;50.186;8.468;2024-03-02T05:56:19;3.50;99.90
11083;DHT22;5595;50.186;8.468;2024-03-02T05:58:46;3.60;99.90
11083;DHT22;5595;50.186;8.468;2024-03-02T06:01:23;3.60;99.90
11083;DHT22;5595;50.186;8.468;2024-03-02T06:03:55;3.70;99.90
11083;DHT22;5595;50.186;8.468;2024-03-02T06:06:24;3.80;99.90
11083;DHT22;5595;50.186;8.468;2024-03-02T06:08:51;3.80;99.90
11083;DHT22;5595;50.186;8.468;2024-03-02T06:11:19;3.90;99.90
11083;DHT22;5595;50.186;8.468;2024-03-02T06:13:46;4.00;99.90
11083;DHT22;5595;50.186;8.468;2024-03-02T06:16:13;4.10;99.90
11083;DHT22;5595;50.186;8.468;2024-03-02T06:18:39;4.10;99.90
11083;DHT22;5595;50.186;8.468;2024-03-02T06:21:06;4.20;99.90
11083;DHT22;5595;50.186;8.468;2024-03-02T06:23:34;4.20;99.90
11083;DHT22;5595;50.186;8.468;2024-03-02T06:26:02;4.30;99.90
11083;DHT22;5595;50.186;8.468;2024-03-02T06:28:29;4.30;99.90
11083;DHT22;5595;50.186;8.468;2024-03-02T06:30:55;4.30;99.90
11083;DHT22;5595;50.186;8.468;2024-03-02T06:33:22;4.40;99.90
11083;DHT22;5595;50.186;8.468;2024-03-02T06:35:49;4.40;99.90
11083;DHT22;5595;50.186;8.468;2024-03-02T06:38:16;4.50;99.90
11083;DHT22;5595;50.186;8.468;2024-03-02T06:40:44;4.50;99.90
11083;DHT22;5595;50.186;8.468;2024-03-02T06:43:11;4.50;99.90
11083;DHT22;5595;50.186;8.468;2024-03-02T06:45:38;4.60;99.90
11083;DHT22;5595;50.186;8.468;2024-03-02T06:48:05;4.60;99.90
11083;DHT22;5595;50.186;8.468;2024-03-02T06:50:32;4.60;99.90
11083;DHT22;5595;50.186;8.468;2024-03-02T06:52:59;4.60;99.90
11083;DHT22;5595;50.186;8.468;2024-03-02T06:55:26;4.60;99.90
11083;DHT22;5595;50.186;8.468;2024-03-02T06:57:54;4.60;99.90
11083;DHT22;5595;50.186;8.468;2024-03-02T07:00:21;4.70;99.90
11083;DHT22;5595;50.186;8.468;2024-03-02T07:02:48;4.70;99.90
11083;DHT22;5595;50.186;8.468;2024-03-02T07:05:15;4.70;99.90
11083;DHT22;5595;50.186;8.468;2024-03-02T07:07:42;4.70;99.90
11083;DHT22;5595;50.186;8.468;2024-03-02T07:10:09;4.60;99.90
11083;DHT22;5595;50.186;8.468;2024-03-02T07:12:35;4.70;99.90
11083;DHT22;5595;50.186;8.468;2024-03-02T07:15:04;4.70;99.90
11083;DHT22;5595;50.186;8.468;2024-03-02T07:17:50;4.70;99.90
11083;DHT22;5595;50.186;8.468;2024-03-02T07:20:17;4.70;99.90
11083;DHT22;5595;50.186;8.468;2024-03-02T07:22:44;4.70;99.90
11083;DHT22;5595;50.186;8.468;2024-03-02T07:25:11;4.90;99.90
11083;DHT22;5595;50.186;8.468;2024-03-02T07:27:38;5.00;99.90
11083;DHT22;5595;50.186;8.468;2024-03-02T07:30:07;5.20;99.90
11083;DHT22;5595;50.186;8.468;2024-03-02T07:32:34;5.40;99.90
11083;DHT22;5595;50.186;8.468;2024-03-02T07:35:00;5.60;99.90
11083;DHT22;5595;50.186;8.468;2024-03-02T07:37:29;5.80;99.90
11083;DHT22;5595;50.186;8.468;2024-03-02T07:39:56;6.00;99.90
11083;DHT22;5595;50.186;8.468;2024-03-02T07:42:22;6.20;99.90
11083;DHT22;5595;50.186;8.468;2024-03-02T07:44:49;6.50;99.90
11083;DHT22;5595;50.186;8.468;2024-03-02T07:47:17;6.70;99.90
11083;DHT22;5595;50.186;8.468;2024-03-02T07:49:44;6.80;99.90
11083;DHT22;5595;50.186;8.468;2024-03-02T07:52:11;6.90;99.90
11083;DHT22;5595;50.186;8.468;2024-03-02T07:54:38;7.00;99.90
11083;DHT22;5595;50.186;8.468;2024-03-02T07:57:05;7.20;99.90
11083;DHT22;5595;50.186;8.468;2024-03-02T07:59:32;7.30;99.90
11083;DHT22;5595;50.186;8.468;2024-03-02T08:01:59;7.40;99.90
11083;DHT22;5595;50.186;8.468;2024-03-02T08:04:27;7.50;99.90
11083;DHT22;5595;50.186;8.468;2024-03-02T08:06:54;7.60;99.90
11083;DHT22;5595;50.186;8.468;2024-03-02T08:09:21;7.70;99.90
11083;DHT22;5595;50.186;8.468;2024-03-02T08:11:48;7.70;99.90
11083;DHT22;5595;50.186;8.468;2024-03-02T08:14:14;7.80;99.90
11083;DHT22;5595;50.186;8.468;2024-03-02T08:16:41;7.90;99.90
11083;DHT22;5595;50.186;8.468;2024-03-02T08:19:08;7.90;99.90
11083;DHT22;5595;50.186;8.468;2024-03-02T08:21:37;7.90;99.90
11083;DHT22;5595;50.186;8.468;2024-03-02T08:24:04;8.00;99.90
11083;DHT22;5595;50.186;8.468;2024-03-02T08:26:31;8.10;99.90
11083;DHT22;5595;50.186;8.468;2024-03-02T08:28:58;8.20;99.90
11083;DHT22;5595;50.186;8.468;2024-03-02T08:31:27;8.30;99.90
11083;DHT22;5595;50.186;8.468;2024-03-02T08:33:53;8.30;99.90
11083;DHT22;5595;50.186;8.468;2024-03-02T08:36:20;8.20;99.90
11083;DHT22;5595;50.186;8.468;2024-03-02T08:38:50;8.30;99.90
11083;DHT22;5595;50.186;8.468;2024-03-02T08:41:17;8.30;99.90
11083;DHT22;5595;50.186;8.468;2024-03-02T08:43:44;8.30;99.90
11083;DHT22;5595;50.186;8.468;2024-03-02T08:46:11;8.40;99.90
11083;DHT22;5595;50.186;8.468;2024-03-02T08:48:37;8.40;99.90
11083;DHT22;5595;50.186;8.468;2024-03-02T08:51:04;8.50;99.90
11083;DHT22;5595;50.186;8.468;2024-03-02T08:53:33;8.80;99.90
11083;DHT22;5595;50.186;8.468;2024-03-02T08:56:01;9.00;99.90
11083;DHT22;5595;50.186;8.468;2024-03-02T08:58:31;9.00;99.90
11083;DHT22;5595;50.186;8.468;2024-03-02T09:00:58;9.10;99.90
11083;DHT22;5595;50.186;8.468;2024-03-02T09:03:24;9.30;99.90
11083;DHT22;5595;50.186;8.468;2024-03-02T09:05:51;9.50;99.90
11083;DHT22;5595;50.186;8.468;2024-03-02T09:08:18;9.70;99.90
11083;DHT22;5595;50.186;8.468;2024-03-02T09:10:45;9.80;99.90
11083;DHT22;5595;50.186;8.468;2024-03-02T09:13:13;9.90;99.90
11083;DHT22;5595;50.186;8.468;2024-03-02T09:15:40;10.00;99.90
11083;DHT22;5595;50.186;8.468;2024-03-02T09:18:07;10.10;99.90
11083;DHT22;5595;50.186;8.468;2024-03-02T09:20:33;10.20;99.90
11083;DHT22;5595;50.186;8.468;2024-03-02T09:23:00;10.10;99.90
11083;DHT22;5595;50.186;8.468;2024-03-02T09:25:27;10.00;99.90
11083;DHT22;5595;50.186;8.468;2024-03-02T09:27:54;9.80;99.90
11083;DHT22;5595;50.186;8.468;2024-03-02T09:30:22;9.60;99.90
11083;DHT22;5595;50.186;8.468;2024-03-02T09:32:48;9.50;99.90
11083;DHT22;5595;50.186;8.468;2024-03-02T09:35:15;9.30;99.90
11083;DHT22;5595;50.186;8.468;2024-03-02T09:37:43;9.20;99.90
11083;DHT22;5595;50.186;8.468;2024-03-02T09:40:11;9.10;99.90
11083;DHT22;5595;50.186;8.468;2024-03-02T09:42:38;9.10;99.90
11083;DHT22;5595;50.186;8.468;2024-03-02T09:45:06;9.10;99.90
11083;DHT22;5595;50.186;8.468;2024-03-02T09:47:34;9.20;99.90
11083;DHT22;5595;50.186;8.468;2024-03-02T09:50:01;9.20;99.90
11083;DHT22;5595;50.186;8.468;2024-03-02T09:52:30;9.20;99.90
11083;DHT22;5595;50.186;8.468;2024-03-02T09:54:56;9.30;99.90
11083;DHT22;5595;50.186;8.468;2024-03-02T09:57:23;9.40;99.90
11083;DHT22;5595;50.186;8.468;2024-03-02T09:59:50;9.40;99.90
11083;DHT22;5595;50.186;8.468;2024-03-02T10:02:17;9.70;99.90
11083;DHT22;5595;50.186;8.468;2024-03-02T10:04:45;9.80;99.90
11083;DHT22;5595;50.186;8.468;2024-03-02T10:07:16;10.00;99.90
11083;DHT22;5595;50.186;8.468;2024-03-02T10:09:44;10.20;99.90
11083;DHT22;5595;50.186;8.468;2024-03-02T10:12:12;10.30;99.90
11083;DHT22;5595;50.186;8.468;2024-03-02T10:14:39;10.40;99.90
11083;DHT22;5595;50.186;8.468;2024-03-02T10:17:07;10.50;99.90
11083;DHT22;5595;50.186;8.468;2024-03-02T10:19:35;10.70;99.90
11083;DHT22;5595;50.186;8.468;2024-03-02T10:22:04;10.70;99.90
11083;DHT22;5595;50.186;8.468;2024-03-02T10:24:36;10.90;99.90
11083;DHT22;5595;50.186;8.468;2024-03-02T10:27:10;10.80;99.90
11083;DHT22;5595;50.186;8.468;2024-03-02T10:29:38;10.80;99.90
11083;DHT22;5595;50.186;8.468;2024-03-02T10:32:08;10.90;99.90
11083;DHT22;5595;50.186;8.468;2024-03-02T10:34:36;10.90;99.90
11083;DHT22;5595;50.186;8.468;2024-03-02T10:37:05;11.00;99.90
11083;DHT22;5595;50.186;8.468;2024-03-02T10:39:32;11.20;99.90
11083;DHT22;5595;50.186;8.468;2024-03-02T10:42:02;11.30;99.90
11083;DHT22;5595;50.186;8.468;2024-03-02T10:44:30;11.30;99.90
11083;DHT22;5595;50.186;8.468;2024-03-02T10:47:00;11.40;99.90
11083;DHT22;5595;50.186;8.468;2024-03-02T10:49:29;11.40;99.90
11083;DHT22;5595;50.186;8.468;2024-03-02T10:51:56;11.60;99.90
11083;DHT22;5595;50.186;8.468;2024-03-02T10:54:24;11.70;99.90
11083;DHT22;5595;50.186;8.468;2024-03-02T10:56:57;11.80;99.90
11083;DHT22;5595;50.186;8.468;2024-03-02T10:59:27;11.90;99.90
11083;DHT22;5595;50.186;8.468;2024-03-02T11:01:57;12.10;99.90
11083;DHT22;5595;50.186;8.468;2024-03-02T11:04:26;12.20;99.90
11083;DHT22;5595;50.186;8.468;2024-03-02T11:06:56;12.20;99.90
11083;DHT22;5595;50.186;8.468;2024-03-02T11:09:28;12.40;99.90
11083;DHT22;5595;50.186;8.468;2024-03-02T11:12:02;12.50;99.90
11083;DHT22;5595;50.186;8.468;2024-03-02T11:14:31;12.50;99.90
11083;DHT22;5595;50.186;8.468;2024-03-02T11:17:00;12.60;99.90
11083;DHT22;5595;50.186;8.468;2024-03-02T11:19:30;12.60;99.90
11083;DHT22;5595;50.186;8.468;2024-03-02T11:21:57;12.70;99.90
11083;DHT22;5595;50.186;8.468;2024-03-02T11:24:33;12.70;99.90
11083;DHT22;5595;50.186;8.468;2024-03-02T11:27:01;12.70;99.90
11083;DHT22;5595;50.186;8.468;2024-03-02T11:29:43;12.70;99.90
11083;DHT22;5595;50.186;8.468;2024-03-02T11:32:14;12.70;99.90
11083;DHT22;5595;50.186;8.468;2024-03-02T11:34:42;12.60;99.90
11083;DHT22;5595;50.186;8.468;2024-03-02T11:37:12;12.60;99.90
11083;DHT22;5595;50.186;8.468;2024-03-02T11:39:42;12.60;99.90
11083;DHT22;5595;50.186;8.468;2024-03-02T11:42:09;12.60;99.90
11083;DHT22;5595;50.186;8.468;2024-03-02T11:44:37;12.70;99.90
11083;DHT22;5595;50.186;8.468;2024-03-02T11:47:06;12.80;99.90
11083;DHT22;5595;50.186;8.468;2024-03-02T11:49:37;12.80;99.90
11083;DHT22;5595;50.186;8.468;2024-03-02T11:52:06;12.90;99.90
11083;DHT22;5595;50.186;8.468;2024-03-02T11:54:33;12.90;99.90
11083;DHT22;5595;50.186;8.468;2024-03-02T11:57:03;12.90;99.90
11083;DHT22;5595;50.186;8.468;2024-03-02T11:59:30;12.90;99.90
11083;DHT22;5595;50.186;8.468;2024-03-02T12:01:57;13.00;99.90
11083;DHT22;5595;50.186;8.468;2024-03-02T12:04:25;13.10;99.90
11083;DHT22;5595;50.186;8.468;2024-03-02T12:06:55;13.00;99.90
11083;DHT22;5595;50.186;8.468;2024-03-02T12:09:22;13.20;99.90
11083;DHT22;5595;50.186;8.468;2024-03-02T12:12:05;13.20;99.90
11083;DHT22;5595;50.186;8.468;2024-03-02T12:14:33;13.30;99.90
11083;DHT22;5595;50.186;8.468;2024-03-02T12:17:01;13.30;99.90
11083;DHT22;5595;50.186;8.468;2024-03-02T12:19:27;13.40;99.90
11083;DHT22;5595;50.186;8.468;2024-03-02T12:21:55;13.40;99.90
11083;DHT22;5595;50.186;8.468;2024-03-02T12:24:23;13.30;99.90
11083;DHT22;5595;50.186;8.468;2024-03-02T12:26:50;13.20;99.90
11083;DHT22;5595;50.186;8.468;2024-03-02T12:29:20;13.10;99.90
11083;DHT22;5595;50.186;8.468;2024-03-02T12:31:48;13.10;99.90
11083;DHT22;5595;50.186;8.468;2024-03-02T12:34:16;13.10;99.90
11083;DHT22;5595;50.186;8.468;2024-03-02T12:36:44;13.10;99.90
11083;DHT22;5595;50.186;8.468;2024-03-02T12:39:13;13.20;99.90
11083;DHT22;5595;50.186;8.468;2024-03-02T12:41:42;13.10;99.90
11083;DHT22;5595;50.186;8.468;2024-03-02T12:44:08;13.10;99.90
11083;DHT22;5595;50.186;8.468;2024-03-02T12:46:37;13.10;99.90
11083;DHT22;5595;50.186;8.468;2024-03-02T12:49:11;13.00;99.90
11083;DHT22;5595;50.186;8.468;2024-03-02T12:51:39;12.90;99.90
11083;DHT22;5595;50.186;8.468;2024-03-02T12:54:07;12.90;99.90
11083;DHT22;5595;50.186;8.468;2024-03-02T12:56:35;12.80;99.90
11083;DHT22;5595;50.186;8.468;2024-03-02T12:59:02;12.70;99.90
11083;DHT22;5595;50.186;8.468;2024-03-02T13:01:29;12.60;99.90
11083;DHT22;5595;50.186;8.468;2024-03-02T13:03:58;12.70;99.90
11083;DHT22;5595;50.186;8.468;2024-03-02T13:06:25;12.70;99.90
11083;DHT22;5595;50.186;8.468;2024-03-02T13:08:54;12.80;99.90
11083;DHT22;5595;50.186;8.468;2024-03-02T13:11:22;13.00;99.90
11083;DHT22;5595;50.186;8.468;2024-03-02T13:13:49;13.10;99.90
11083;DHT22;5595;50.186;8.468;2024-03-02T13:16:16;13.30;99.90
11083;DHT22;5595;50.186;8.468;2024-03-02T13:18:44;13.30;99.90
11083;DHT22;5595;50.186;8.468;2024-03-02T13:21:13;13.40;99.90
11083;DHT22;5595;50.186;8.468;2024-03-02T13:23:40;13.50;99.90
11083;DHT22;5595;50.186;8.468;2024-03-02T13:26:06;13.60;99.90
11083;DHT22;5595;50.186;8.468;2024-03-02T13:28:36;13.60;99.90
11083;DHT22;5595;50.186;8.468;2024-03-02T13:31:03;13.50;99.90
11083;DHT22;5595;50.186;8.468;2024-03-02T13:33:30;13.60;99.90
11083;DHT22;5595;50.186;8.468;2024-03-02T13:35:58;13.60;99.90
11083;DHT22;5595;50.186;8.468;2024-03-02T13:38:26;13.50;99.90
11083;DHT22;5595;50.186;8.468;2024-03-02T13:40:53;13.50;99.90
11083;DHT22;5595;50.186;8.468;2024-03-02T13:43:20;13.50;99.90
11083;DHT22;5595;50.186;8.468;2024-03-02T13:45:47;13.50;99.90
11083;DHT22;5595;50.186;8.468;2024-03-02T13:48:14;13.50;99.90
11083;DHT22;5595;50.186;8.468;2024-03-02T13:50:41;13.50;99.90
11083;DHT22;5595;50.186;8.468;2024-03-02T13:53:08;13.60;99.90
11083;DHT22;5595;50.186;8.468;2024-03-02T13:55:37;13.70;99.90
11083;DHT22;5595;50.186;8.468;2024-03-02T13:58:04;13.90;99.90
11083;DHT22;5595;50.186;8.468;2024-03-02T14:00:31;13.90;99.90
11083;DHT22;5595;50.186;8.468;2024-03-02T14:02:58;13.80;99.90
11083;DHT22;5595;50.186;8.468;2024-03-02T14:05:25;13.70;99.90
11083;DHT22;5595;50.186;8.468;2024-03-02T14:07:52;13.60;99.90
11083;DHT22;5595;50.186;8.468;2024-03-02T14:10:19;13.50;99.90
11083;DHT22;5595;50.186;8.468;2024-03-02T14:12:49;13.40;99.90
11083;DHT22;5595;50.186;8.468;2024-03-02T14:15:16;13.40;99.90
11083;DHT22;5595;50.186;8.468;2024-03-02T14:17:43;13.30;99.90
11083;DHT22;5595;50.186;8.468;2024-03-02T14:20:10;13.30;99.90
11083;DHT22;5595;50.186;8.468;2024-03-02T14:22:41;13.30;99.90
11083;DHT22;5595;50.186;8.468;2024-03-02T14:25:08;13.30;99.90
11083;DHT22;5595;50.186;8.468;2024-03-02T14:27:35;13.20;99.90
11083;DHT22;5595;50.186;8.468;2024-03-02T14:30:04;13.20;99.90
11083;DHT22;5595;50.186;8.468;2024-03-02T14:32:34;13.10;99.90
11083;DHT22;5595;50.186;8.468;2024-03-02T14:35:00;13.10;99.90
11083;DHT22;5595;50.186;8.468;2024-03-02T14:37:28;13.10;99.90
11083;DHT22;5595;50.186;8.468;2024-03-02T14:39:54;13.10;99.90
11083;DHT22;5595;50.186;8.468;2024-03-02T14:42:22;13.10;99.90
11083;DHT22;5595;50.186;8.468;2024-03-02T14:44:49;13.10;99.90
11083;DHT22;5595;50.186;8.468;2024-03-02T14:47:17;13.10;99.90
11083;DHT22;5595;50.186;8.468;2024-03-02T14:49:44;13.10;99.90
11083;DHT22;5595;50.186;8.468;2024-03-02T14:52:10;13.10;99.90
11083;DHT22;5595;50.186;8.468;2024-03-02T14:54:37;13.10;99.90
11083;DHT22;5595;50.186;8.468;2024-03-02T14:57:04;13.00;99.90
11083;DHT22;5595;50.186;8.468;2024-03-02T14:59:31;12.90;99.90
11083;DHT22;5595;50.186;8.468;2024-03-02T15:01:58;12.90;99.90
11083;DHT22;5595;50.186;8.468;2024-03-02T15:04:27;12.80;99.90
11083;DHT22;5595;50.186;8.468;2024-03-02T15:06:53;12.70;99.90
11083;DHT22;5595;50.186;8.468;2024-03-02T15:09:20;12.70;99.90
11083;DHT22;5595;50.186;8.468;2024-03-02T15:11:47;12.70;99.90
11083;DHT22;5595;50.186;8.468;2024-03-02T15:14:14;12.60;99.90
11083;DHT22;5595;50.186;8.468;2024-03-02T15:16:41;12.80;99.90
11083;DHT22;5595;50.186;8.468;2024-03-02T15:19:08;12.80;99.90
11083;DHT22;5595;50.186;8.468;2024-03-02T15:21:36;12.70;99.90
11083;DHT22;5595;50.186;8.468;2024-03-02T15:24:04;12.70;99.90
11083;DHT22;5595;50.186;8.468;2024-03-02T15:26:31;12.60;99.90
11083;DHT22;5595;50.186;8.468;2024-03-02T15:28:57;12.60;99.90
11083;DHT22;5595;50.186;8.468;2024-03-02T15:31:24;12.60;99.90
11083;DHT22;5595;50.186;8.468;2024-03-02T15:33:52;12.60;99.90
11083;DHT22;5595;50.186;8.468;2024-03-02T15:36:21;12.60;99.90
11083;DHT22;5595;50.186;8.468;2024-03-02T15:38:49;12.60;99.90
11083;DHT22;5595;50.186;8.468;2024-03-02T15:41:16;12.60;99.90
11083;DHT22;5595;50.186;8.468;2024-03-02T15:43:46;12.70;99.90
11083;DHT22;5595;50.186;8.468;2024-03-02T15:46:13;12.70;99.90
11083;DHT22;5595;50.186;8.468;2024-03-02T15:48:39;12.70;99.90
11083;DHT22;5595;50.186;8.468;2024-03-02T15:51:06;12.60;99.90
11083;DHT22;5595;50.186;8.468;2024-03-02T15:53:35;12.60;99.90
11083;DHT22;5595;50.186;8.468;2024-03-02T15:56:03;12.50;99.90
11083;DHT22;5595;50.186;8.468;2024-03-02T15:58:31;12.50;99.90